Data for 12/19/2013

Time Sea-Level Adjusted Pressure Absolute Pressure Temperature Relative Humidity Dew Point   
(mb) (inHg) (mb) (inHg) (C) (F) (%) (C) (F)
00:05 1009 29.8 838 24.75 -0 32 93 -1 30.2
00:10 1009 29.8 838 24.75 -0 32 94 -0.9 30.3
00:15 1009 29.8 838 24.75 -0 31.9 94 -0.9 30.4
00:20 1009 29.8 838 24.75 -0.1 31.9 94 -0.9 30.3
00:25 1009 29.8 838 24.75 -0.1 31.8 94 -0.9 30.3
00:30 1009 29.8 838 24.75 -0.1 31.8 95 -0.9 30.4
00:35 1009 29.8 838 24.75 -0.2 31.6 95 -1 30.3
00:40 1009 29.8 838 24.75 -0.2 31.6 95 -0.9 30.4
00:45 1009 29.8 838 24.75 -0.2 31.6 95 -0.9 30.5
00:50 1008 29.77 838 24.75 -0.2 31.6 95 -0.9 30.4
00:55 1008 29.77 838 24.75 -0.3 31.5 95 -0.9 30.3
01:00 1008 29.77 838 24.75 -0.3 31.5 96 -0.9 30.5
01:05 1008 29.77 838 24.75 -0.2 31.6 96 -0.8 30.5
01:10 1008 29.77 838 24.75 -0.2 31.6 96 -0.8 30.5
01:15 1008 29.77 837 24.72 -0.3 31.5 96 -0.9 30.4
01:20 1008 29.77 837 24.72 -0.3 31.4 96 -0.9 30.4
01:25 1008 29.77 837 24.72 -0.3 31.4 96 -0.9 30.4
01:30 1008 29.77 837 24.72 -0.4 31.3 96 -1 30.2
01:35 1008 29.77 837 24.72 -0.4 31.2 96 -1 30.2
01:40 1008 29.77 837 24.72 -0.4 31.4 96 -0.9 30.4
01:45 1008 29.77 837 24.72 -0.4 31.4 96 -0.9 30.4
01:50 1008 29.77 837 24.72 -0.3 31.4 96 -0.8 30.5
01:55 1008 29.77 837 24.72 -0.3 31.5 96 -0.8 30.5
02:00 1008 29.77 837 24.72 -0.3 31.5 96 -0.8 30.6
02:05 1008 29.77 837 24.72 -0.3 31.5 96 -0.8 30.6
02:10 1008 29.77 837 24.72 -0.5 31.2 95 -1.2 29.9
02:15 1008 29.77 838 24.75 -1.6 29.1 95 -2.3 27.8
02:20 1008 29.77 838 24.75 -2.1 28.3 95 -2.8 27
02:25 1008 29.77 838 24.75 -2.4 27.7 95 -3.1 26.5
02:30 1008 29.77 838 24.75 -2.4 27.8 96 -3 26.6
02:35 1008 29.77 838 24.75 -2.5 27.5 94 -3.3 26.1
02:40 1008 29.77 838 24.75 -2.8 27 94 -3.6 25.5
02:45 1008 29.77 838 24.75 -3.2 26.2 91 -4.4 24
02:50 1008 29.77 838 24.75 -3.6 25.5 91 -4.8 23.4
02:55 1009 29.8 838 24.75 -3.8 25.2 91 -5 23
03:00 1009 29.8 838 24.75 -4 24.9 91 -5.2 22.6
03:05 1009 29.8 838 24.75 -4.1 24.6 92 -5.3 22.5
03:10 1009 29.8 838 24.75 -4.1 24.6 91 -5.4 22.4
03:15 1009 29.8 838 24.75 -4.1 24.6 90 -5.6 21.9
03:20 1009 29.8 838 24.75 -4.2 24.5 89 -5.7 21.7
03:25 1009 29.8 838 24.75 -4.2 24.4 89 -5.8 21.6
03:30 1009 29.8 838 24.75 -4.4 24.1 88 -6 21.2
03:35 1009 29.8 838 24.75 -4.7 23.6 87 -6.5 20.3
03:40 1010 29.83 839 24.78 -4.9 23.3 88 -6.5 20.3
03:45 1010 29.83 839 24.78 -5 22.9 86 -7 19.5
03:50 1010 29.83 839 24.78 -5 23 89 -6.5 20.2
03:55 1010 29.83 839 24.78 -5.5 22.1 87 -7.3 18.9
04:00 1010 29.83 839 24.78 -6.5 20.2 88 -8.3 17.1
04:05 1010 29.83 839 24.78 -7.4 18.7 89 -8.9 16
04:10 1010 29.83 840 24.81 -7.8 18 90 -9.1 15.6
04:15 1011 29.85 840 24.81 -8 17.7 89 -9.4 15
04:20 1011 29.85 840 24.81 -8.3 17 90 -9.7 14.6
04:25 1011 29.85 840 24.81 -8.5 16.7 89 -10 14
04:30 1011 29.85 840 24.81 -8.7 16.3 89 -10.3 13.5
04:35 1011 29.85 840 24.81 -9 15.9 90 -10.3 13.4
04:40 1011 29.85 840 24.81 -9 15.8 91 -10.2 13.6
04:45 1011 29.85 840 24.81 -9 15.7 89 -10.5 13.2
04:50 1011 29.85 840 24.81 -9.2 15.4 88 -10.9 12.4
04:55 1011 29.85 840 24.81 -9.6 14.6 89 -11.1 12.1
05:00 1011 29.85 841 24.83 -9.7 14.6 89 -11.1 12
05:05 1011 29.85 841 24.83 -9.7 14.6 90 -11 12.2
05:10 1011 29.85 841 24.83 -9.8 14.3 88 -11.5 11.3
05:15 1011 29.85 841 24.83 -10.2 13.6 88 -11.9 10.7
05:20 1012 29.88 841 24.83 -10.6 13 87 -12.3 9.9
05:25 1012 29.88 841 24.83 -10.9 12.4 88 -12.5 9.4
05:30 1012 29.88 841 24.83 -11.1 12 87 -12.9 8.9
05:35 1012 29.88 841 24.83 -11.3 11.7 87 -13.1 8.4
05:40 1012 29.88 841 24.83 -11.5 11.3 87 -13.2 8.2
05:45 1012 29.88 841 24.83 -11.6 11.2 87 -13.3 8.1
05:50 1012 29.88 841 24.83 -11.6 11.1 87 -13.4 7.9
05:55 1012 29.88 841 24.83 -11.7 10.9 88 -13.4 7.9
06:00 1012 29.88 841 24.83 -11.7 10.9 87 -13.5 7.8
06:05 1012 29.88 841 24.83 -11.8 10.9 88 -13.3 8
06:10 1012 29.88 841 24.83 -11.7 10.9 88 -13.4 7.9
06:15 1012 29.88 841 24.83 -11.9 10.6 88 -13.6 7.6
06:20 1012 29.88 841 24.83 -12 10.4 88 -13.6 7.5
06:25 1012 29.88 841 24.83 -12.3 10 87 -14.1 6.7
06:30 1012 29.88 842 24.86 -12.4 9.6 88 -14.1 6.7
06:35 1012 29.88 842 24.86 -12.5 9.5 88 -14.1 6.6
06:40 1012 29.88 842 24.86 -12.6 9.4 87 -14.3 6.3
06:45 1012 29.88 842 24.86 -12.7 9.1 87 -14.5 5.9
06:50 1013 29.91 842 24.86 -12.9 8.8 87 -14.7 5.6
06:55 1013 29.91 842 24.86 -13 8.5 88 -14.7 5.5
07:00 1013 29.91 842 24.86 -13.1 8.4 86 -14.9 5.1
07:05 1013 29.91 842 24.86 -13.2 8.2 88 -14.9 5.2
07:10 1013 29.91 842 24.86 -13.3 8.2 85 -15.3 4.5
07:15 1013 29.91 842 24.86 -13.5 7.7 83 -15.8 3.5
07:20 1013 29.91 842 24.86 -13.8 7.2 83 -16.1 3
07:25 1013 29.91 842 24.86 -13.9 6.9 84 -16.1 2.9
07:30 1013 29.91 842 24.86 -14 6.9 83 -16.3 2.7
07:35 1013 29.91 842 24.86 -13.9 7 83 -16.2 2.8
07:40 1013 29.91 843 24.89 -13.9 7 83 -16.2 2.8
07:45 1013 29.91 843 24.89 -13.9 7 85 -15.9 3.4
07:50 1013 29.91 843 24.89 -13.7 7.3 83 -16 3.3
07:55 1013 29.91 843 24.89 -13.8 7.1 84 -16 3.2
08:00 1014 29.94 843 24.89 -13.9 7 84 -16.1 3
08:05 1014 29.94 843 24.89 -14 6.9 84 -16.1 3.1
08:10 1014 29.94 843 24.89 -13.9 7 84 -16.1 3.1
08:15 1014 29.94 843 24.89 -14 6.8 84 -16.1 3
08:20 1014 29.94 843 24.89 -14 6.8 84 -16.2 2.9
08:25 1014 29.94 843 24.89 -14 6.8 84 -16.1 3
08:30 1014 29.94 843 24.89 -13.9 7 85 -15.9 3.4
08:35 1014 29.94 843 24.89 -13.7 7.3 84 -15.9 3.4
08:40 1014 29.94 843 24.89 -13.6 7.5 84 -15.8 3.6
08:45 1014 29.94 844 24.92 -13.6 7.6 85 -15.6 3.9
08:50 1015 29.97 844 24.92 -13.4 7.8 85 -15.5 4.1
08:55 1015 29.97 844 24.92 -13.4 7.9 85 -15.4 4.2
09:00 1015 29.97 844 24.92 -13.4 8 86 -15.3 4.5
09:05 1015 29.97 844 24.92 -13.3 8.1 85 -15.3 4.5
09:10 1015 29.97 844 24.92 -13.2 8.2 85 -15.3 4.5
09:15 1015 29.97 844 24.92 -13.2 8.2 84 -15.4 4.3
09:20 1015 29.97 844 24.92 -13.2 8.2 83 -15.5 4
09:25 1016 30 845 24.95 -13.3 8.1 83 -15.6 4
09:30 1016 30 845 24.95 -13.5 7.8 83 -15.8 3.6
09:35 1016 30 845 24.95 -13.6 7.6 82 -16 3.2
09:40 1016 30 845 24.95 -13.8 7.2 82 -16.2 2.8
09:45 1016 30 845 24.95 -13.9 7 82 -16.3 2.6
09:50 1016 30 845 24.95 -13.9 6.9 82 -16.4 2.5
09:55 1016 30 845 24.95 -14 6.8 82 -16.5 2.3
10:00 1016 30 845 24.95 -14 6.7 83 -16.4 2.5
10:05 1016 30 846 24.98 -14 6.7 82 -16.5 2.4
10:10 1016 30 846 24.98 -14.1 6.7 82 -16.5 2.3
10:15 1017 30.03 846 24.98 -14.1 6.7 82 -16.4 2.4
10:20 1017 30.03 846 24.98 -13.9 6.9 83 -16.3 2.7
10:25 1017 30.03 846 24.98 -13.9 7.1 84 -16 3.2
10:30 1017 30.03 846 24.98 -13.7 7.4 83 -15.9 3.3
10:35 1017 30.03 846 24.98 -13.7 7.4 84 -15.9 3.5
10:40 1017 30.03 847 25.01 -13.5 7.7 84 -15.7 3.8
10:45 1017 30.03 847 25.01 -13.3 8.1 82 -15.7 3.7
10:50 1018 30.06 847 25.01 -13.3 8 80 -16 3.2
10:55 1018 30.06 847 25.01 -13.5 7.8 80 -16.1 3
11:00 1018 30.06 847 25.01 -13.6 7.5 81 -16.2 2.8
11:05 1018 30.06 847 25.01 -13.6 7.5 82 -16 3.1
11:10 1018 30.06 847 25.01 -13.5 7.7 81 -16.1 3
11:15 1018 30.06 847 25.01 -13.5 7.6 81 -16.1 3
11:20 1018 30.06 847 25.01 -13.5 7.6 80 -16.3 2.7
11:25 1018 30.06 847 25.01 -13.5 7.8 82 -16 3.3
11:30 1018 30.06 847 25.01 -13.2 8.3 79 -16 3.2
11:35 1018 30.06 847 25.01 -13.3 8 82 -15.8 3.6
11:40 1018 30.06 847 25.01 -13.1 8.4 80 -15.9 3.4
11:45 1018 30.06 847 25.01 -12.9 8.8 79 -15.8 3.6
11:50 1018 30.06 847 25.01 -12.7 9.1 79 -15.6 3.9
11:55 1018 30.06 847 25.01 -12.6 9.2 79 -15.6 3.9
12:00 1018 30.06 847 25.01 -12.4 9.6 78 -15.6 3.9
12:05 1018 30.06 847 25.01 -12.3 9.9 78 -15.3 4.4
12:10 1018 30.06 847 25.01 -12.1 10.2 76 -15.6 4
12:15 1018 30.06 847 25.01 -12.1 10.2 76 -15.5 4.1
12:20 1018 30.06 847 25.01 -12 10.5 76 -15.5 4.2
12:25 1018 30.06 847 25.01 -11.6 11.1 74 -15.3 4.5
12:30 1018 30.06 847 25.01 -11.4 11.5 73 -15.4 4.3
12:35 1018 30.06 847 25.01 -11.4 11.4 74 -15.2 4.6
12:40 1018 30.06 847 25.01 -11.3 11.6 72 -15.5 4.1
12:45 1018 30.06 847 25.01 -11.4 11.5 73 -15.3 4.4
12:50 1018 30.06 847 25.01 -11.3 11.6 71 -15.5 4.1
12:55 1018 30.06 847 25.01 -10.9 12.3 71 -15.2 4.6
13:00 1018 30.06 847 25.01 -10.8 12.5 69 -15.5 4.1
13:05 1018 30.06 847 25.01 -11.2 11.9 70 -15.6 4
13:10 1018 30.06 847 25.01 -11.4 11.5 70 -15.9 3.4
13:15 1018 30.06 847 25.01 -11.5 11.4 69 -16.1 3
13:20 1018 30.06 847 25.01 -11.7 10.9 69 -16.3 2.6
13:25 1018 30.06 847 25.01 -11.9 10.6 70 -16.3 2.7
13:30 1018 30.06 847 25.01 -11.7 10.9 67 -16.6 2.1
13:35 1018 30.06 847 25.01 -12.2 10 70 -16.6 2.1
13:40 1018 30.06 847 25.01 -12.1 10.3 70 -16.5 2.4
13:45 1017 30.03 847 25.01 -11.6 11 66 -16.8 1.8
13:50 1017 30.03 847 25.01 -11.9 10.5 70 -16.4 2.5
13:55 1017 30.03 847 25.01 -11.9 10.5 68 -16.7 2
14:00 1017 30.03 846 24.98 -12.2 10 71 -16.5 2.3
14:05 1017 30.03 846 24.98 -11.7 10.9 67 -16.7 1.9
14:10 1017 30.03 846 24.98 -11.9 10.6 67 -16.9 1.6
14:15 1017 30.03 846 24.98 -12 10.4 67 -16.9 1.5
14:20 1016 30 846 24.98 -12.1 10.2 67 -17.1 1.3
14:25 1016 30 846 24.98 -12.3 9.9 69 -16.9 1.6
14:30 1016 30 846 24.98 -12.1 10.1 69 -16.7 1.9
14:35 1016 30 846 24.98 -11.4 11.5 65 -16.7 2
14:40 1016 30 845 24.95 -11.1 12 65 -16.5 2.2
14:45 1016 30 846 24.98 -10.6 12.9 64 -16.2 2.8
14:50 1016 30 845 24.95 -10.2 13.6 64 -15.9 3.4
14:55 1016 30 845 24.95 -11.7 11 69 -16.3 2.6
15:00 1016 30 845 24.95 -12.5 9.6 71 -16.6 2.1
15:05 1016 30 845 24.95 -11.2 11.9 64 -16.7 1.9
15:10 1016 30 845 24.95 -10.7 12.7 63 -16.4 2.6
15:15 1016 30 845 24.95 -10.5 13 61 -16.6 2.1
15:20 1016 30 845 24.95 -10.2 13.6 59 -16.8 1.7
15:25 1015 29.97 845 24.95 -10.8 12.6 64 -16.4 2.4
15:30 1015 29.97 845 24.95 -11.7 10.9 66 -16.9 1.6
15:35 1015 29.97 845 24.95 -11.8 10.8 66 -17 1.4
15:40 1015 29.97 845 24.95 -11.6 11.1 66 -16.7 2
15:45 1015 29.97 844 24.92 -10.8 12.5 62 -16.7 1.9
15:50 1015 29.97 844 24.92 -10.7 12.7 62 -16.7 2
15:55 1015 29.97 845 24.95 -11.4 11.5 65 -16.7 2
16:00 1015 29.97 845 24.95 -11 12.2 62 -16.8 1.7
16:05 1015 29.97 845 24.95 -11 12.1 64 -16.7 2
16:10 1015 29.97 845 24.95 -10.8 12.5 62 -16.7 1.9
16:15 1016 30 845 24.95 -11.4 11.6 66 -16.5 2.4
16:20 1016 30 845 24.95 -12.1 10.2 65 -17.3 0.8
16:25 1016 30 845 24.95 -12.3 9.9 68 -16.9 1.5
16:30 1016 30 845 24.95 -12.7 9.2 68 -17.3 0.8
16:35 1016 30 845 24.95 -12 10.4 66 -17.1 1.1
16:40 1016 30 845 24.95 -11.9 10.7 65 -17.2 1
16:45 1016 30 845 24.95 -11.7 11 63 -17.5 0.5
16:50 1016 30 845 24.95 -11.7 11 63 -17.4 0.7
16:55 1016 30 845 24.95 -11.7 10.9 63 -17.4 0.7
17:00 1016 30 845 24.95 -12 10.4 66 -17.2 1.1
17:05 1016 30 845 24.95 -12.1 10.3 65 -17.3 0.9
17:10 1016 30 846 24.98 -12.2 10.1 66 -17.3 0.9
17:15 1016 30 846 24.98 -12.3 9.9 67 -17.3 0.9
17:20 1016 30 846 24.98 -12.5 9.4 68 -17.4 0.8
17:25 1016 30 846 24.98 -12.8 9 68 -17.5 0.6
17:30 1016 30 846 24.98 -13 8.6 70 -17.5 0.6
17:35 1016 30 846 24.98 -13.6 7.5 73 -17.5 0.6
17:40 1017 30.03 846 24.98 -14 6.8 75 -17.6 0.4
17:45 1017 30.03 846 24.98 -14.4 6.1 76 -17.7 0.1
17:50 1017 30.03 846 24.98 -14.9 5.1 79 -17.8 -0.1
17:55 1017 30.03 846 24.98 -15.3 4.5 80 -17.9 -0.3
18:00 1017 30.03 846 24.98 -15.5 4.2 81 -18 -0.4
18:05 1016 30 846 24.98 -15.4 4.2 80 -18.1 -0.6
18:10 1016 30 846 24.98 -15.8 3.7 82 -18.2 -0.7
18:15 1017 30.03 846 24.98 -16 3.1 82 -18.4 -1.2
18:20 1016 30 846 24.98 -16.1 2.9 84 -18.3 -1
18:25 1016 30 846 24.98 -16.2 2.9 82 -18.6 -1.5
18:30 1016 30 846 24.98 -16.6 2.1 84 -18.7 -1.7
18:35 1016 30 846 24.98 -16.7 1.9 84 -18.8 -1.8
18:40 1016 30 845 24.95 -16.9 1.5 83 -19.2 -2.5
18:45 1016 30 845 24.95 -17.2 1.1 84 -19.2 -2.6
18:50 1016 30 845 24.95 -17.2 1 85 -19.2 -2.6
18:55 1016 30 845 24.95 -17.2 1.1 85 -19.1 -2.3
19:00 1016 30 845 24.95 -17.1 1.3 85 -19 -2.3
19:05 1016 30 845 24.95 -17 1.4 85 -19 -2.1
19:10 1016 30 845 24.95 -16.8 1.8 84 -18.9 -2.1
19:15 1016 30 846 24.98 -16.8 1.9 84 -18.9 -2.1
19:20 1016 30 846 24.98 -16.6 2.1 83 -18.8 -1.9
19:25 1016 30 846 24.98 -16.7 2 83 -18.9 -2
19:30 1016 30 845 24.95 -16.7 1.9 82 -19.1 -2.4
19:35 1016 30 845 24.95 -17.1 1.1 83 -19.4 -2.9
19:40 1016 30 845 24.95 -17.6 0.3 84 -19.8 -3.6
19:45 1015 29.97 844 24.92 -17.7 0.1 84 -19.8 -3.6
19:50 1015 29.97 845 24.95 -17.4 0.6 84 -19.6 -3.2
19:55 1015 29.97 844 24.92 -17.3 0.8 83 -19.6 -3.2
20:00 1015 29.97 844 24.92 -17.4 0.7 84 -19.4 -3
20:05 1015 29.97 844 24.92 -16.9 1.5 83 -19.2 -2.5
20:10 1015 29.97 844 24.92 -16.7 1.9 82 -19.2 -2.6
20:15 1015 29.97 844 24.92 -17.1 1.1 82 -19.5 -3
20:20 1015 29.97 844 24.92 -17.4 0.7 83 -19.7 -3.4
20:25 1015 29.97 844 24.92 -17.5 0.5 84 -19.6 -3.3
20:30 1015 29.97 844 24.92 -17.4 0.7 83 -19.6 -3.3
20:35 1015 29.97 844 24.92 -17.2 1.1 82 -19.5 -3.1
20:40 1015 29.97 844 24.92 -17.2 1 81 -19.7 -3.5
20:45 1015 29.97 844 24.92 -17.6 0.3 82 -20 -4.1
20:50 1015 29.97 844 24.92 -17.8 -0 82 -20.1 -4.2
20:55 1015 29.97 844 24.92 -17.8 -0 83 -20 -4.1
21:00 1015 29.97 844 24.92 -17.6 0.3 83 -19.9 -3.9
21:05 1015 29.97 845 24.95 -17.6 0.3 83 -19.8 -3.7
21:10 1015 29.97 845 24.95 -17.4 0.8 82 -19.7 -3.5
21:15 1015 29.97 844 24.92 -17.1 1.2 81 -19.6 -3.3
21:20 1015 29.97 844 24.92 -17.4 0.6 81 -20 -3.9
21:25 1015 29.97 844 24.92 -17.6 0.4 82 -19.9 -3.8
21:30 1015 29.97 844 24.92 -17.8 -0.1 79 -20.6 -5
21:35 1015 29.97 844 24.92 -18.3 -1 84 -20.4 -4.8
21:40 1015 29.97 844 24.92 -17.3 0.8 84 -19.4 -2.9
21:45 1015 29.97 844 24.92 -16.5 2.4 83 -18.7 -1.7
21:50 1015 29.97 844 24.92 -16 3.2 80 -18.7 -1.7
21:55 1015 29.97 845 24.95 -16.3 2.7 78 -19.2 -2.6
22:00 1015 29.97 845 24.95 -16.9 1.5 81 -19.5 -3.1
22:05 1015 29.97 845 24.95 -17 1.5 81 -19.4 -3
22:10 1015 29.97 845 24.95 -16.6 2.1 79 -19.4 -3
22:15 1015 29.97 845 24.95 -16.9 1.7 78 -19.8 -3.6
22:20 1015 29.97 845 24.95 -17.7 0.1 82 -20.1 -4.2
22:25 1015 29.97 845 24.95 -18.1 -0.7 82 -20.5 -4.9
22:30 1015 29.97 845 24.95 -18.1 -0.6 84 -20.2 -4.3
22:35 1015 29.97 844 24.92 -17.4 0.7 83 -19.6 -3.3
22:40 1015 29.97 844 24.92 -16.9 1.6 82 -19.3 -2.7
22:45 1015 29.97 844 24.92 -16.7 2 81 -19.2 -2.5
22:50 1015 29.97 844 24.92 -16.6 2.2 81 -19.1 -2.4
22:55 1015 29.97 844 24.92 -16.4 2.4 80 -19.1 -2.4
23:00 1015 29.97 844 24.92 -16.6 2.1 80 -19.3 -2.7
23:05 1015 29.97 844 24.92 -16.9 1.6 81 -19.4 -2.9
23:10 1015 29.97 844 24.92 -17 1.5 81 -19.4 -3
23:15 1015 29.97 844 24.92 -16.9 1.5 82 -19.2 -2.6
23:20 1015 29.97 844 24.92 -16.7 2 81 -19.2 -2.6
23:25 1015 29.97 844 24.92 -16.8 1.7 80 -19.5 -3
23:30 1015 29.97 844 24.92 -17.2 1.1 80 -19.8 -3.6
23:35 1015 29.97 844 24.92 -17.8 0 82 -20.1 -4.2
23:40 1015 29.97 844 24.92 -18 -0.4 83 -20.3 -4.5
23:45 1015 29.97 844 24.92 -17.7 0.2 82 -20 -4
23:50 1015 29.97 844 24.92 -17.6 0.2 82 -20 -4
23:55 1015 29.97 844 24.92 -17.6 0.3 83 -19.9 -3.7
24:00 1015 29.97 844 24.92 -17.5 0.5 84 -19.7 -3.4